Weather observations for the past three days for
Columbia / Maury County
Imperial (Metric)
Date Time (cdt) Wind (mph) Vis. (mi.) Weather Sky Cond. Temperature (ºF) Relative Humidity Wind Chill (°F) Heat Index (°F) Pressure Precipitation (in)
Air Dwpt 6 hour altimeter (in) sea level (mb) 1 hr 3 hr 6 hr
Max. Min.
05 18:10 Calm 10.00 Fair CLR 96.8 68 39% 102 29.85 0.0
05 17:50 Vrbl 3 10.00 Fair CLR 96.8 68 39% 102 29.85 0.0
05 17:35 N 3 10.00 Fair CLR 96.8 66.2 37% 100 29.85 0.0
05 17:10 N 5 10.00 Fair CLR 98.6 68 37% 104 29.85 0.0
05 16:50 N 6 10.00 Fair CLR 98.6 68 37% 104 29.85 0.0
05 16:35 NW 5 10.00 Fair CLR 98.6 66.2 35% 103 29.86 0.0
05 16:10 N 6 G 13 10.00 Fair CLR 98.6 66.2 35% 103 29.86 0.0
05 15:50 Calm 10.00 Fair CLR 98.6 66.2 35% 103 29.86 0.0
05 15:35 Vrbl 3 10.00 Fair CLR 98.6 68 37% 104 29.87 0.0
05 15:10 Calm 10.00 Fair CLR 98.6 68 37% 104 29.88 0.0
05 14:50 Vrbl 5 10.00 Fair CLR 98.6 68 37% 104 29.89 0.0
05 12:50 Vrbl 5 10.00 Fair CLR 95 71.6 47% 103 29.93 0.0
05 12:35 Calm 10.00 Fair CLR 93.2 71.6 50% 101 29.94 0.0
05 12:10 Vrbl 5 10.00 Fair CLR 95 71.6 47% 103 29.94 0.0
05 11:50 Calm 9.00 Fair CLR 93.2 71.6 50% 101 29.95 0.0
05 11:35 Calm 10.00 Fair CLR 91.4 71.6 52% 99 29.96 0.0
05 11:10 Calm 10.00 Fair CLR 91.4 71.6 52% 99 29.96 0.0
05 10:50 Vrbl 5 10.00 Fair CLR 91.4 71.6 52% 99 29.97 0.0
05 10:35 Calm 10.00 Fair CLR 89.6 73.4 59% 98 29.97 0.0
05 10:10 S 3 6.00 Fair with Haze CLR 86 75.2 70% 95 29.97 0.0
05 09:50 Calm 1.00 Fair with Haze CLR 84.2 75.2 74% 92 29.97 0.0
05 09:35 Calm 0.50 Fog VV005 82.4 78.8 89% 92 29.98 0.0
05 09:10 Calm 2.50 Fog/Mist CLR 77 77 100% 78 29.98 0.0
05 08:50 Calm 4.00 Fog/Mist CLR 77 77 100% 78 29.98 0.0
05 08:35 Calm 4.00 Fog/Mist FEW003 75.2 75.2 100% 73 29.98 0.0
05 08:10 Calm 7.00 Fair CLR 75.2 75.2 100% 73 29.98 0.0
05 07:50 Calm 7.00 Fair CLR 75.2 75.2 100% 73 29.98 0.0
05 07:35 Calm 9.00 Fair CLR 73.4 73.4 100% 29.97 0.0
05 07:10 Calm 7.00 Fair CLR 73.4 73.4 100% 29.96 0.0
05 06:50 Calm 8.00 Fair CLR 73.4 73.4 100% 29.96 0.0
05 06:35 Calm 9.00 A Few Clouds FEW004 71.6 71.6 100% 29.96 0.0
05 06:10 Calm 6.00 Fog/Mist FEW003 71.6 71.6 100% 29.95 0.0
05 05:50 Calm 2.50 Fog/Mist BKN003 71.6 71.6 100% 29.94 0.0
05 05:35 Calm 5.00 Fog/Mist BKN003 71.6 71.6 100% 29.94 0.0
05 05:10 Calm 4.00 Fog/Mist BKN002 71.6 71.6 100% 29.94 0.0
05 04:50 SW 3 6.00 Fog/Mist SCT002 71.6 71.6 100% 29.93 0.0
05 04:10 Calm 7.00 Fair CLR 73.4 73.4 100% 29.93 0.0
05 03:50 Calm 7.00 Fair CLR 73.4 73.4 100% 29.93 0.0
05 03:35 Calm 8.00 Fair CLR 73.4 73.4 100% 29.93 0.0
05 03:10 Calm 7.00 Fair CLR 73.4 73.4 100% 29.93 0.0
05 02:50 Calm 9.00 Fair CLR 73.4 73.4 100% 29.93 0.0
05 02:35 Calm 7.00 Fair CLR 73.4 73.4 100% 29.93 0.0
05 02:10 Calm 9.00 Fair CLR 73.4 73.4 100% 29.93 0.0
05 01:50 Calm 8.00 Fair CLR 73.4 73.4 100% 29.92 0.0
05 01:35 Calm 8.00 Fair CLR 73.4 73.4 100% 29.93 0.0
05 00:50 Calm 10.00 Fair CLR 75.2 75.2 100% 73 29.94 0.0
05 00:35 Calm 10.00 Fair CLR 75.2 75.2 100% 73 29.94 0.0
05 00:10 Calm 10.00 Fair CLR 75.2 75.2 100% 73 29.94 0.0
04 23:50 Calm 10.00 Fair CLR 75.2 75.2 100% 73 29.94 0.0
04 23:40 Calm 10.00 Fair CLR 75.2 75.2 100% 73 29.94 0.0
04 23:10 Calm 10.00 Fair CLR 75.2 75.2 100% 73 29.95 0.0
04 22:35 Calm 10.00 Fair CLR 77 77 100% 78 29.95 0.0
04 22:10 Calm 10.00 Fair CLR 77 77 100% 78 29.96 0.0
04 21:50 Calm 10.00 Fair CLR 77 77 100% 78 29.96 0.0
04 21:35 Calm 10.00 Fair CLR 77 77 100% 78 29.96 0.0
04 21:10 Calm 10.00 Fair CLR 78.8 78.8 100% 83 29.96 0.0
04 20:55 Calm 10.00 Fair CLR 78.8 78.8 100% 83 29.96 0.0
04 20:35 E 5 10.00 Fair CLR 78.8 78.8 100% 83 29.96 0.0
04 20:10 Calm 10.00 Fair CLR 80.6 78.8 94% 88 29.95 0.0
04 19:50 Calm 10.00 Fair CLR 80.6 77 89% 87 29.96 0.0
04 19:35 Calm 10.00 Fair CLR 82.4 75.2 79% 89 29.95 0.0
04 19:10 Calm 10.00 Fair CLR 82.4 75.2 79% 89 29.95 0.0
04 18:50 S 3 G 12 10.00 Fair CLR 82.4 77 84% 91 29.95 0.0
04 18:35 SE 9 10.00 Fair CLR 84.2 78.8 84% 96 29.94 0.0
04 18:10 Calm 10.00 Fair CLR 84.2 78.8 84% 96 29.94 0.0
04 17:50 SE 3 10.00 Fair CLR 84.2 77 79% 94 29.93 0.0
04 17:35 Calm 9.00 Fair CLR 86 77 75% 97 29.93 0.0
04 17:10 S 3 8.00 Fair CLR 86 75.2 70% 95 29.93 0.0
04 16:50 Calm 10.00 Fair CLR 84.2 73.4 70% 91 29.94 0.0
04 16:35 SW 5 10.00 Fair CLR 84.2 75.2 74% 92 29.95 0.0
04 16:10 Calm 10.00 Fair CLR 82.4 73.4 74% 88 29.96 0.0
04 15:50 S 9 4.00 Partly Cloudy with Haze FEW055 FEW075 SCT090 80.6 73.4 79% 85 29.94 0.0
04 15:35 E 10 G 20 10.00 Mostly Cloudy SCT055 BKN075 BKN090 87.8 66.2 49% 90 29.95 0.0
04 15:10 E 3 10.00 Mostly Cloudy BKN055 BKN065 BKN100 95 69.8 44% 101 29.95 0.0
04 14:50 NE 7 10.00 Mostly Cloudy SCT060 BKN100 96.8 69.8 42% 103 29.96 0.0
04 14:35 N 5 10.00 Partly Cloudy SCT060 SCT075 98.6 68 37% 104 29.96 0.0
04 14:10 NE 5 10.00 Partly Cloudy SCT060 SCT080 96.8 68 39% 102 29.97 0.0
04 13:50 N 5 10.00 A Few Clouds FEW065 FEW080 98.6 68 37% 104 29.97 0.0
04 13:35 Calm 10.00 Fair CLR 98.6 68 37% 104 29.98 0.0
04 13:10 NE 5 10.00 A Few Clouds FEW055 FEW065 96.8 68 39% 102 29.99 0.0
04 12:50 Calm 10.00 A Few Clouds FEW055 96.8 68 39% 102 30 0.0
04 12:35 Calm 10.00 A Few Clouds FEW055 96.8 68 39% 102 30 0.0
04 12:10 Calm 10.00 Fair CLR 96.8 69.8 42% 103 30.01 0.0
04 11:50 Calm 10.00 Fair CLR 95 69.8 44% 101 30.02 0.0
04 11:35 Vrbl 3 10.00 Fair CLR 95 71.6 47% 103 30.02 0.0
04 11:10 Calm 10.00 Fair CLR 95 71.6 47% 103 30.02 0.0
04 10:50 Vrbl 3 10.00 Fair CLR 93.2 71.6 50% 101 30.03 0.0
04 10:35 Calm 10.00 Fair CLR 93.2 71.6 50% 101 30.03 0.0
04 10:10 Calm 10.00 Fair CLR 91.4 73.4 56% 100 30.03 0.0
04 09:50 Calm 9.00 Fair CLR 89.6 75.2 63% 100 30.02 0.0
04 09:35 Calm 9.00 Fair CLR 87.8 77 70% 100 30.02 0.0
04 09:10 Calm 7.00 Fair CLR 86 78.8 79% 99 30.02 0.0
04 08:50 Calm 9.00 Fair CLR 84.2 80.6 89% 98 30.02 0.0
04 08:35 Calm 8.00 Fair CLR 82.4 82.4 100% 96 30.02 0.0
04 08:10 Calm 3.00 Fog/Mist CLR 78.8 78.8 100% 83 30.01 0.0
04 07:50 Calm 2.50 Fog/Mist CLR 77 77 100% 78 30.01 0.0
04 07:35 SW 3 5.00 Fog/Mist CLR 75.2 75.2 100% 73 30.01 0.0
04 07:10 Calm 4.00 Fog/Mist CLR 75.2 75.2 100% 73 30 0.0
04 06:50 Calm 4.00 Fog/Mist CLR 73.4 73.4 100% 30 0.0
04 06:35 Calm 6.00 Fog/Mist CLR 73.4 73.4 100% 30 0.0
04 06:10 Calm 10.00 Fair CLR 73.4 73.4 100% 29.99 0.0
04 05:50 Calm 8.00 Fair CLR 73.4 73.4 100% 29.99 0.0
04 05:35 Calm 7.00 Fair CLR 73.4 73.4 100% 29.99 0.0
04 05:10 Calm 5.00 Fog/Mist BKN003 73.4 73.4 100% 29.98 0.0
04 04:50 Calm 8.00 Mostly Cloudy BKN003 73.4 73.4 100% 29.98 0.0
04 04:35 Calm 7.00 Partly Cloudy SCT003 73.4 73.4 100% 29.97 0.0
04 04:10 Calm 6.00 Fog/Mist SCT004 75.2 75.2 100% 73 29.97 0.0
04 03:50 Calm 7.00 A Few Clouds FEW004 75.2 75.2 100% 73 29.97 0.0
04 03:35 Calm 6.00 Fog/Mist FEW003 75.2 75.2 100% 73 29.97 0.0
04 03:10 Calm 8.00 Fair CLR 75.2 75.2 100% 73 29.97 0.0
04 02:50 Calm 8.00 Fair CLR 75.2 75.2 100% 73 29.97 0.0
04 02:35 Calm 6.00 Fog/Mist CLR 75.2 75.2 100% 73 29.97 0.0
04 01:50 Calm 9.00 Fair CLR 75.2 75.2 100% 73 29.97 0.0
04 01:35 Calm 10.00 Fair CLR 77 77 100% 78 29.97 0.0
04 01:10 Calm 10.00 Fair CLR 75.2 75.2 100% 73 29.97 0.0
04 00:50 Calm 10.00 Fair CLR 77 77 100% 78 29.98 0.0
04 00:35 Calm 10.00 Fair CLR 77 77 100% 78 29.98 0.0
04 00:15 Calm 10.00 A Few Clouds FEW003 77 77 100% 78 29.98 0.0
03 23:50 Calm 10.00 A Few Clouds FEW003 77 77 100% 78 29.98 0.0
03 23:35 Calm 10.00 Fair CLR 78.8 78.8 100% 83 29.98 0.0
03 23:10 Calm 10.00 A Few Clouds FEW003 78.8 78.8 100% 83 29.98 0.0
03 22:50 Calm 10.00 Fair CLR 78.8 78.8 100% 83 29.99 0.0
03 22:35 Calm 10.00 Fair CLR 78.8 78.8 100% 83 29.99 0.0
03 22:10 Calm 10.00 Fair CLR 80.6 80.6 100% 89 29.99 0.0
03 21:50 Calm 10.00 Fair CLR 80.6 80.6 100% 89 29.99 0.0
03 21:35 Calm 10.00 Fair CLR 80.6 80.6 100% 89 29.99 0.0
03 21:10 Calm 10.00 Fair CLR 82.4 80.6 94% 94 29.98 0.0
03 20:50 Calm 10.00 Fair CLR 82.4 78.8 89% 92 29.98 0.0
03 20:40 S 3 10.00 Fair CLR 82.4 77 84% 91 29.97 0.0
03 20:10 Calm 10.00 Fair CLR 84.2 75.2 74% 92 29.97 0.0
03 19:50 Calm 10.00 Fair CLR 86 73.4 66% 93 29.96 0.0
03 19:35 Calm 10.00 Fair CLR 86 75.2 70% 95 29.95 0.0
03 19:10 Calm 10.00 Fair CLR 89.6 71.6 55% 96 29.95 0.0
03 18:55 Calm 10.00 Fair CLR 91.4 69.8 49% 97 29.95 0.0
03 18:30 Calm 10.00 Partly Cloudy SCT085 93.2 69.8 47% 99 29.95 0.0
03 18:10 E 6 10.00 Partly Cloudy FEW070 SCT090 93.2 68 44% 98 29.95 0.0
03 17:55 NE 6 10.00 Partly Cloudy SCT070 95 68 41% 100 29.94 0.0
03 17:30 Vrbl 5 10.00 Fair CLR 96.8 66.2 37% 100 29.94 0.0
03 17:10 Vrbl 3 10.00 Fair CLR 98.6 66.2 35% 103 29.94 0.0
03 16:55 SE 6 10.00 Fair CLR 98.6 66.2 35% 103 29.94 0.0
03 16:30 S 3 10.00 Fair CLR 98.6 66.2 35% 103 29.94 0.0
03 16:10 S 6 10.00 Fair CLR 98.6 66.2 35% 103 29.94 0.0
03 15:55 Calm 10.00 Fair CLR 98.6 64.4 33% 101 29.95 0.0
03 15:30 Calm 10.00 Fair CLR 98.6 64.4 33% 101 29.96 0.0
03 15:10 Vrbl 3 10.00 Fair CLR 98.6 66.2 35% 103 29.96 0.0
03 14:55 Vrbl 5 10.00 Fair CLR 98.6 66.2 35% 103 29.97 0.0
03 14:30 Calm 10.00 Fair CLR 98.6 64.4 33% 101 29.98 0.0
03 14:10 Vrbl 5 10.00 Fair CLR 98.6 66.2 35% 103 29.99 0.0
03 13:55 SE 5 10.00 Fair CLR 98.6 66.2 35% 103 29.99 0.0
03 13:30 SE 6 10.00 Fair CLR 96.8 68 39% 102 30 0.0
03 13:10 Vrbl 5 10.00 Fair CLR 96.8 68 39% 102 30.01 0.0
03 12:55 SE 7 10.00 Fair CLR 96.8 68 39% 102 30.01 0.0
03 12:30 E 5 10.00 Fair CLR 96.8 68 39% 102 30.02 0.0
03 12:10 E 6 10.00 Fair CLR 95 68 41% 100 30.03 0.0
03 11:55 Vrbl 3 10.00 Fair CLR 95 68 41% 100 30.03 0.0
03 11:30 Vrbl 3 10.00 Fair CLR 95 66.2 39% 98 30.04 0.0
03 11:10 Calm 10.00 Fair CLR 93.2 68 44% 98 30.05 0.0
03 10:55 Calm 10.00 Fair CLR 93.2 68 44% 98 30.05 0.0
03 10:30 Calm 10.00 Fair CLR 91.4 69.8 49% 97 30.05 0.0
03 10:10 Calm 10.00 Fair CLR 89.6 71.6 55% 96 30.05 0.0
03 09:55 Calm 10.00 Fair CLR 87.8 71.6 59% 94 30.05 0.0
03 09:30 Calm 10.00 Fair CLR 86 75.2 70% 95 30.05 0.0
03 09:10 Calm 9.00 Fair CLR 82.4 77 84% 91 30.05 0.0
03 08:55 Calm 9.00 Fair CLR 82.4 78.8 89% 92 30.05 0.0
03 08:30 Calm 10.00 Fair CLR 80.6 78.8 94% 88 30.05 0.0
03 08:10 Calm 10.00 Fair CLR 78.8 78.8 100% 83 30.05 0.0
03 07:55 Calm 9.00 Fair CLR 77 77 100% 78 30.05 0.0
03 07:30 Calm 8.00 Fair CLR 75.2 75.2 100% 73 30.05 0.0
03 07:10 Calm 8.00 Fair CLR 73.4 73.4 100% 30.05 0.0
03 06:55 Calm 4.00 Fog/Mist CLR 71.6 71.6 100% 30.04 0.0
03 06:30 Calm 4.00 Fog/Mist FEW002 71.6 71.6 100% 30.04 0.0
03 06:10 Calm 7.00 Partly Cloudy SCT003 71.6 71.6 100% 30.04 0.0
03 05:55 Calm 6.00 Fog/Mist SCT003 71.6 71.6 100% 30.03 0.0
03 05:10 Calm 9.00 Fair CLR 71.6 71.6 100% 30.02 0.0
03 04:55 Calm 7.00 Fair CLR 71.6 71.6 100% 30.02 0.0
03 04:30 Calm 10.00 A Few Clouds FEW003 73.4 73.4 100% 30.02 0.0
03 04:10 Calm 10.00 Fair CLR 73.4 73.4 100% 30.02 0.0
03 03:55 Calm 10.00 A Few Clouds FEW003 73.4 73.4 100% 30.02 0.0
03 03:30 Calm 9.00 Partly Cloudy SCT003 73.4 73.4 100% 30.02 0.0
03 03:10 Calm 8.00 Fair CLR 73.4 73.4 100% 30.02 0.0
03 02:55 Calm 7.00 Fair CLR 73.4 73.4 100% 30.02 0.0
03 02:30 Calm 10.00 Fair CLR 73.4 73.4 100% 30.01 0.0
03 02:10 Calm 10.00 Fair CLR 73.4 73.4 100% 30.01 0.0
03 01:50 Calm 10.00 Fair CLR 73.4 73.4 100% 30.01 0.0
03 01:35 Calm 10.00 Fair CLR 75.2 75.2 100% 73 30.01 0.0
03 01:10 Calm 10.00 Fair CLR 75.2 75.2 100% 73 30.02 0.0
03 00:50 Calm 10.00 Partly Cloudy SCT003 75.2 75.2 100% 73 30.02 0.0
03 00:35 Calm 10.00 Mostly Cloudy BKN003 75.2 75.2 100% 73 30.02 0.0
03 00:10 Calm 10.00 Mostly Cloudy BKN003 75.2 75.2 100% 73 30.02 0.0
02 23:55 Calm 10.00 A Few Clouds FEW003 75.2 75.2 100% 73 30.02 0.0
02 23:35 Calm 10.00 Fair CLR 77 77 100% 78 30.01 0.0
02 23:10 Calm 10.00 Fair CLR 77 77 100% 78 30.01 0.0
02 22:50 Calm 10.00 A Few Clouds FEW002 77 77 100% 78 30.02 0.0
02 22:35 Calm 10.00 Fair CLR 77 77 100% 78 30.02 0.0
02 22:10 Calm 10.00 A Few Clouds FEW003 78.8 77 94% 83 30.02 0.0
02 21:50 Calm 10.00 Fair CLR 78.8 78.8 100% 83 30.02 0.0
02 21:35 Calm 10.00 Fair CLR 78.8 78.8 100% 83 30.02 0.0
02 21:15 Calm 10.00 Fair CLR 78.8 78.8 100% 83 30.02 0.0
02 20:50 Calm 10.00 Fair CLR 80.6 80.6 100% 89 30.01 0.0
02 20:35 Calm 10.00 Fair CLR 82.4 80.6 94% 94 30.01 0.0
02 20:10 Calm 10.00 Fair CLR 82.4 80.6 94% 94 30 0.0
02 19:50 Calm 10.00 Fair CLR 84.2 78.8 84% 96 30 0.0
02 19:35 Calm 10.00 Fair CLR 86 77 75% 97 30 0.0
02 19:10 Calm 10.00 Fair CLR 89.6 73.4 59% 98 30 0.0
02 18:55 Calm 10.00 Fair CLR 89.6 75.2 63% 100 30 0.0
Date Time (cdt) Wind (mph) Vis. (mi.) Weather Sky Cond. Air Dwpt Max. Min. Relative Humidity Wind Chill (°F) Heat Index (°F) altimeter (in) sea level (mb) 1 hr 3 hr 6 hr
6 hour
Temperature (ºF) Pressure Precipitation (in)